createdAt,value
2023-05-25T00:00:08.372Z,8.70
2023-05-25T00:02:32.119Z,8.70
2023-05-25T00:05:04.095Z,8.50
2023-05-25T00:07:10.049Z,8.40
2023-05-25T00:09:15.172Z,8.60
2023-05-25T00:11:19.061Z,8.50
2023-05-25T00:13:21.632Z,8.50
2023-05-25T00:15:24.282Z,8.50
2023-05-25T00:17:28.641Z,8.60
2023-05-25T00:19:31.876Z,8.50
2023-05-25T00:21:36.201Z,8.60
2023-05-25T00:23:38.750Z,8.60
2023-05-25T00:25:41.448Z,8.60
2023-05-25T00:27:44.101Z,8.70
2023-05-25T00:29:47.121Z,8.50
2023-05-25T00:31:50.607Z,8.50
2023-05-25T00:33:54.418Z,8.50
2023-05-25T00:35:58.037Z,8.60
2023-05-25T00:38:00.588Z,8.40
2023-05-25T00:40:04.212Z,8.40
2023-05-25T00:42:07.038Z,8.30
2023-05-25T00:44:10.096Z,8.20
2023-05-25T00:46:14.366Z,8.20
2023-05-25T00:48:17.254Z,8.10
2023-05-25T00:50:21.690Z,8.10
2023-05-25T00:52:26.170Z,8.10
2023-05-25T00:54:28.797Z,8.10
2023-05-25T00:56:32.727Z,8.20
2023-05-25T00:58:35.559Z,8.20
2023-05-25T01:00:41.126Z,8.30
2023-05-25T01:02:45.236Z,8.20
2023-05-25T01:04:51.508Z,8.00
2023-05-25T01:06:55.264Z,7.90
2023-05-25T01:09:00.683Z,8.00
2023-05-25T01:11:04.125Z,8.00
2023-05-25T01:13:07.174Z,7.90
2023-05-25T01:15:11.904Z,8.00
2023-05-25T01:17:15.254Z,8.00
2023-05-25T01:19:17.934Z,8.00
2023-05-25T01:21:22.461Z,8.00
2023-05-25T01:23:27.910Z,8.00
2023-05-25T01:25:33.368Z,8.00
2023-05-25T01:27:39.589Z,7.90
2023-05-25T01:29:44.038Z,7.90
2023-05-25T01:31:47.409Z,7.90
2023-05-25T01:33:51.747Z,7.90
2023-05-25T01:35:54.299Z,7.90
2023-05-25T01:37:58.345Z,7.90
2023-05-25T01:40:01.052Z,7.80
2023-05-25T01:42:05.814Z,7.50
2023-05-25T01:44:10.573Z,7.30
2023-05-25T01:46:15.260Z,7.30
2023-05-25T01:48:21.346Z,7.30
2023-05-25T01:50:25.814Z,7.40
2023-05-25T01:52:30.405Z,7.50
2023-05-25T01:54:36.420Z,7.50
2023-05-25T01:56:41.728Z,7.50
2023-05-25T01:58:45.250Z,7.50
2023-05-25T02:00:49.581Z,7.50
2023-05-25T02:02:52.739Z,7.50
2023-05-25T02:04:56.951Z,7.50
2023-05-25T02:06:59.560Z,7.40
2023-05-25T02:09:02.175Z,7.30
2023-05-25T02:11:04.956Z,7.30
2023-05-25T02:13:07.599Z,7.30
2023-05-25T02:15:11.413Z,7.30
2023-05-25T02:17:14.032Z,7.20
2023-05-25T02:19:16.653Z,7.20
2023-05-25T02:21:19.339Z,7.20
2023-05-25T02:23:21.965Z,7.00
2023-05-25T02:25:24.576Z,7.00
2023-05-25T02:27:27.188Z,7.10
2023-05-25T02:29:29.840Z,7.10
2023-05-25T02:31:32.579Z,7.20
2023-05-25T02:33:35.464Z,7.10
2023-05-25T02:35:38.181Z,7.10
2023-05-25T02:37:41.249Z,7.00
2023-05-25T02:39:43.998Z,6.90
2023-05-25T02:41:46.672Z,6.80
2023-05-25T02:43:49.283Z,7.00
2023-05-25T02:45:51.928Z,7.00
2023-05-25T02:47:54.563Z,6.90
2023-05-25T02:49:57.862Z,6.70
2023-05-25T02:52:00.603Z,6.70
2023-05-25T02:54:03.472Z,6.80
2023-05-25T02:56:08.766Z,6.70
2023-05-25T02:58:11.380Z,6.70
2023-05-25T03:00:16.767Z,6.80
2023-05-25T03:02:20.501Z,6.70
2023-05-25T03:04:23.155Z,6.70
2023-05-25T03:06:25.889Z,6.70
2023-05-25T03:08:30.584Z,6.70
2023-05-25T03:10:34.435Z,6.70
2023-05-25T03:12:37.168Z,6.80
2023-05-25T03:14:39.831Z,6.70
2023-05-25T03:16:42.496Z,6.80
2023-05-25T03:18:45.182Z,6.80
2023-05-25T03:20:47.956Z,6.90
2023-05-25T03:22:50.569Z,6.90
2023-05-25T03:24:54.406Z,6.90
2023-05-25T03:26:56.925Z,6.90
2023-05-25T03:28:59.586Z,6.90
2023-05-25T03:31:03.930Z,6.90
2023-05-25T03:33:06.605Z,6.90
2023-05-25T03:35:11.026Z,6.80
2023-05-25T03:37:14.058Z,6.80
2023-05-25T03:39:16.997Z,6.80
2023-05-25T03:41:20.239Z,6.80
2023-05-25T03:43:22.951Z,6.90
2023-05-25T03:45:25.585Z,6.90
2023-05-25T03:47:28.213Z,7.00
2023-05-25T03:49:31.735Z,7.00
2023-05-25T03:51:34.344Z,7.10
2023-05-25T03:53:36.978Z,7.10
2023-05-25T03:55:39.646Z,7.00
2023-05-25T03:57:42.309Z,7.00
2023-05-25T03:59:44.937Z,6.90
2023-05-25T04:01:47.610Z,6.90
2023-05-25T04:03:50.424Z,6.80
2023-05-25T04:05:53.081Z,6.80
2023-05-25T04:07:57.336Z,6.80
2023-05-25T04:09:59.855Z,6.80
2023-05-25T04:14:20.964Z,6.80
2023-05-25T04:16:25.629Z,6.90
2023-05-25T04:18:28.345Z,6.90
2023-05-25T04:20:31.105Z,7.00
2023-05-25T04:22:33.816Z,7.00
2023-05-25T04:24:37.046Z,7.00
2023-05-25T04:26:40.983Z,7.00
2023-05-25T04:28:45.124Z,7.00
2023-05-25T04:30:49.727Z,7.10
2023-05-25T04:32:56.634Z,7.20
2023-05-25T04:35:01.187Z,7.20
2023-05-25T04:37:07.569Z,7.30
2023-05-25T04:39:11.176Z,7.40
2023-05-25T04:41:15.633Z,7.40
2023-05-25T04:43:20.076Z,7.60
2023-05-25T04:45:23.325Z,7.60
2023-05-25T04:47:26.895Z,7.70
2023-05-25T04:49:30.823Z,7.80
2023-05-25T04:51:34.176Z,7.90
2023-05-25T04:53:36.799Z,8.00
2023-05-25T04:55:39.971Z,8.10
2023-05-25T04:57:42.879Z,8.20
2023-05-25T04:59:45.428Z,8.20
2023-05-25T05:01:48.277Z,8.30
2023-05-25T05:03:52.760Z,8.20
2023-05-25T05:05:56.444Z,8.30
2023-05-25T05:08:03.017Z,8.40
2023-05-25T05:10:06.770Z,8.50
2023-05-25T05:14:24.835Z,8.60
2023-05-25T05:16:30.834Z,8.70
2023-05-25T05:18:33.543Z,8.70
2023-05-25T05:20:36.267Z,8.80
2023-05-25T05:22:39.131Z,9.00
2023-05-25T05:24:43.076Z,9.00
2023-05-25T05:26:57.366Z,9.00
2023-05-25T05:28:52.355Z,9.10
2023-05-25T05:30:55.259Z,9.20
2023-05-25T05:32:58.982Z,9.30
2023-05-25T05:35:03.877Z,9.40
2023-05-25T05:37:08.337Z,9.40
2023-05-25T05:39:11.576Z,9.50
2023-05-25T05:41:14.548Z,9.60
2023-05-25T05:43:19.110Z,9.60
2023-05-25T05:45:21.890Z,9.70
2023-05-25T05:47:24.552Z,9.60
2023-05-25T05:49:27.196Z,9.70
2023-05-25T05:51:29.935Z,9.80
2023-05-25T05:53:34.370Z,9.80
2023-05-25T05:55:37.638Z,9.90
2023-05-25T05:57:40.405Z,10.50
2023-05-25T05:59:43.024Z,10.00
2023-05-25T06:01:45.805Z,10.10
2023-05-25T06:03:49.249Z,10.20
2023-05-25T06:05:51.945Z,10.20
2023-05-25T06:07:55.106Z,10.20
2023-05-25T06:09:57.991Z,10.20
2023-05-25T06:12:02.948Z,10.30
2023-05-25T06:14:06.522Z,10.30
2023-05-25T06:16:09.241Z,10.40
2023-05-25T06:18:12.016Z,10.40
2023-05-25T06:20:15.052Z,10.40
2023-05-25T06:22:17.859Z,10.50
2023-05-25T06:24:20.893Z,10.50
2023-05-25T06:26:23.558Z,10.60
2023-05-25T06:28:26.183Z,10.70
2023-05-25T06:30:28.870Z,10.70
2023-05-25T06:32:31.752Z,10.80
2023-05-25T06:34:36.602Z,10.30
2023-05-25T06:36:39.114Z,10.90
2023-05-25T06:38:41.750Z,11.10
2023-05-25T06:40:44.616Z,11.10
2023-05-25T06:42:50.866Z,11.20
2023-05-25T06:44:57.749Z,11.20
2023-05-25T06:47:04.730Z,11.30
2023-05-25T06:49:19.672Z,11.30
2023-05-25T06:51:27.800Z,11.40
2023-05-25T06:53:31.215Z,11.50
2023-05-25T06:55:34.213Z,11.60
2023-05-25T06:57:36.855Z,11.70
2023-05-25T06:59:39.421Z,11.80
2023-05-25T07:01:42.110Z,11.90
2023-05-25T07:03:44.717Z,12.00
2023-05-25T07:05:47.263Z,12.10
2023-05-25T07:07:49.772Z,12.10
2023-05-25T07:09:52.301Z,12.10
2023-05-25T07:11:54.848Z,12.20
2023-05-25T07:13:57.467Z,12.30
2023-05-25T07:16:00.400Z,12.20
2023-05-25T07:18:03.015Z,12.40
2023-05-25T07:20:07.058Z,12.40
2023-05-25T07:22:09.814Z,12.50
2023-05-25T07:26:29.077Z,12.70
2023-05-25T07:28:31.766Z,12.80
2023-05-25T07:30:34.344Z,12.80
2023-05-25T07:32:37.951Z,13.00
2023-05-25T07:34:41.217Z,12.90
2023-05-25T07:36:43.732Z,12.90
2023-05-25T07:38:46.920Z,13.00
2023-05-25T07:40:49.544Z,12.90
2023-05-25T07:42:52.064Z,12.80
2023-05-25T07:44:54.706Z,12.90
2023-05-25T07:46:57.376Z,12.90
2023-05-25T07:49:01.751Z,13.00
2023-05-25T07:51:04.496Z,12.90
2023-05-25T07:53:07.036Z,12.90
2023-05-25T07:55:10.609Z,12.90
2023-05-25T07:57:13.224Z,12.60
2023-05-25T07:59:15.945Z,12.70
2023-05-25T08:01:18.512Z,12.70
2023-05-25T08:03:31.679Z,12.60
2023-05-25T08:05:27.621Z,12.70
2023-05-25T08:07:30.648Z,12.70
2023-05-25T08:09:33.243Z,12.60
2023-05-25T08:11:35.779Z,12.70
2023-05-25T08:13:38.349Z,12.70
2023-05-25T08:15:41.025Z,12.70
2023-05-25T08:17:43.619Z,12.60
2023-05-25T08:19:46.383Z,12.70
2023-05-25T08:21:48.970Z,12.70
2023-05-25T08:23:51.689Z,12.70
2023-05-25T08:25:54.221Z,12.70
2023-05-25T08:27:56.768Z,12.70
2023-05-25T08:29:59.293Z,12.60
2023-05-25T08:32:01.901Z,12.60
2023-05-25T08:34:04.490Z,12.60
2023-05-25T08:36:08.848Z,12.60
2023-05-25T08:38:11.423Z,12.60
2023-05-25T08:40:15.704Z,12.60
2023-05-25T08:42:18.372Z,12.70
2023-05-25T08:44:21.561Z,12.60
2023-05-25T08:46:27.343Z,12.60
2023-05-25T08:48:40.259Z,12.70
2023-05-25T08:50:36.286Z,12.80
2023-05-25T08:52:39.931Z,12.90
2023-05-25T08:54:43.747Z,12.90
2023-05-25T08:56:49.451Z,12.90
2023-05-25T08:58:53.854Z,12.80
2023-05-25T09:00:58.196Z,12.90
2023-05-25T09:03:02.617Z,13.00
2023-05-25T09:05:06.151Z,13.00
2023-05-25T09:07:10.869Z,13.00
2023-05-25T09:09:13.216Z,12.90
2023-05-25T09:11:17.368Z,12.90
2023-05-25T09:13:22.570Z,12.90
2023-05-25T09:15:24.496Z,12.90
2023-05-25T09:17:27.049Z,12.90
2023-05-25T09:19:29.610Z,12.80
2023-05-25T09:21:32.124Z,12.70
2023-05-25T09:23:35.430Z,12.80
2023-05-25T09:25:38.004Z,12.70
2023-05-25T09:27:41.158Z,12.70
2023-05-25T09:29:43.689Z,12.80
2023-05-25T09:31:46.706Z,12.80
2023-05-25T09:33:49.305Z,12.90
2023-05-25T09:35:51.874Z,13.00
2023-05-25T09:37:54.865Z,13.00
2023-05-25T09:39:57.448Z,13.00
2023-05-25T09:42:01.308Z,13.20
2023-05-25T09:44:10.935Z,13.30
2023-05-25T09:46:09.372Z,13.30
2023-05-25T09:48:11.955Z,13.30
2023-05-25T09:50:14.448Z,13.30
2023-05-25T09:52:16.994Z,13.60
2023-05-25T09:54:22.205Z,13.60
2023-05-25T09:56:24.738Z,13.70
2023-05-25T09:58:27.481Z,13.80
2023-05-25T10:00:30.132Z,13.90
2023-05-25T10:02:32.801Z,13.80
2023-05-25T10:04:35.480Z,13.90
2023-05-25T10:06:38.824Z,13.90
2023-05-25T10:08:42.373Z,13.80
2023-05-25T10:10:45.560Z,13.90
2023-05-25T10:12:50.148Z,13.80
2023-05-25T10:14:53.705Z,13.90
2023-05-25T10:16:57.667Z,13.90
2023-05-25T10:19:02.516Z,13.80
2023-05-25T10:21:07.134Z,13.80
2023-05-25T10:23:11.415Z,13.80
2023-05-25T10:25:16.267Z,13.80
2023-05-25T10:27:26.965Z,13.90
2023-05-25T10:29:24.995Z,13.90
2023-05-25T10:31:29.208Z,13.80
2023-05-25T10:33:32.400Z,13.80
2023-05-25T10:35:46.803Z,13.80
2023-05-25T10:37:39.643Z,13.70
2023-05-25T10:39:42.486Z,13.70
2023-05-25T10:41:45.139Z,13.80
2023-05-25T10:43:48.253Z,13.80
2023-05-25T10:45:50.799Z,13.90
2023-05-25T10:47:53.376Z,14.00
2023-05-25T10:49:57.194Z,14.20
2023-05-25T10:52:00.007Z,14.40
2023-05-25T10:54:03.147Z,14.60
2023-05-25T10:56:06.803Z,14.70
2023-05-25T10:58:10.150Z,15.00
2023-05-25T11:00:14.018Z,15.30
2023-05-25T11:02:16.850Z,15.40
2023-05-25T11:04:22.714Z,15.50
2023-05-25T11:06:44.434Z,15.50
2023-05-25T11:08:55.852Z,15.60
2023-05-25T11:10:58.692Z,15.60
2023-05-25T11:13:21.974Z,15.40
2023-05-25T11:15:24.464Z,15.30
2023-05-25T11:17:29.058Z,15.20
2023-05-25T11:19:39.199Z,15.20
2023-05-25T11:21:43.028Z,15.10
2023-05-25T11:23:55.558Z,15.00
2023-05-25T11:26:04.528Z,14.90
2023-05-25T11:28:08.304Z,14.90
2023-05-25T11:30:12.678Z,14.90
2023-05-25T11:32:15.579Z,15.10
2023-05-25T11:34:18.469Z,15.20
2023-05-25T11:38:37.070Z,15.40
2023-05-25T11:40:40.530Z,15.50
2023-05-25T11:42:46.029Z,15.50
2023-05-25T11:44:48.612Z,15.40
2023-05-25T11:46:51.180Z,15.40
2023-05-25T11:48:54.484Z,15.50
2023-05-25T11:51:06.875Z,15.60
2023-05-25T11:53:10.262Z,15.80
2023-05-25T11:55:13.755Z,15.90
2023-05-25T11:57:17.404Z,15.90
2023-05-25T11:59:19.989Z,15.80
2023-05-25T12:01:23.119Z,15.70
2023-05-25T12:03:32.024Z,15.70
2023-05-25T12:05:38.346Z,15.60
2023-05-25T12:07:44.026Z,15.60
2023-05-25T12:10:11.720Z,15.60
2023-05-25T12:12:27.281Z,15.50
2023-05-25T12:14:30.021Z,15.40
2023-05-25T12:16:34.106Z,15.50
2023-05-25T12:18:36.783Z,15.40
2023-05-25T12:20:40.798Z,15.30
2023-05-25T12:22:44.514Z,15.20
2023-05-25T12:24:48.880Z,15.20
2023-05-25T12:26:54.532Z,15.20
2023-05-25T12:29:00.908Z,15.20
2023-05-25T12:31:21.198Z,15.30
2023-05-25T12:33:24.041Z,15.40
2023-05-25T12:35:27.150Z,15.40
2023-05-25T12:37:46.380Z,15.40
2023-05-25T12:39:50.005Z,15.40
2023-05-25T12:41:54.895Z,15.40
2023-05-25T12:43:58.191Z,15.50
2023-05-25T12:46:02.691Z,15.50
2023-05-25T12:48:05.860Z,15.60
2023-05-25T12:50:12.226Z,15.70
2023-05-25T12:52:32.387Z,15.80
2023-05-25T12:54:43.670Z,15.80
2023-05-25T12:56:56.087Z,16.00
2023-05-25T12:59:14.669Z,16.10
2023-05-25T13:01:17.258Z,16.20
2023-05-25T13:03:19.946Z,16.20
2023-05-25T13:05:23.225Z,16.20
2023-05-25T13:07:27.144Z,16.20
2023-05-25T13:09:30.233Z,16.20
2023-05-25T13:11:32.819Z,16.20
2023-05-25T13:13:35.479Z,16.10
2023-05-25T13:15:37.994Z,16.10
2023-05-25T13:17:42.680Z,16.00
2023-05-25T13:19:45.288Z,16.00
2023-05-25T13:21:48.867Z,16.00
2023-05-25T13:23:51.602Z,16.00
2023-05-25T13:25:54.476Z,16.00
2023-05-25T13:27:58.822Z,16.00
2023-05-25T13:30:01.342Z,16.00
2023-05-25T13:32:03.963Z,15.90
2023-05-25T13:34:06.856Z,15.90
2023-05-25T13:36:09.428Z,15.90
2023-05-25T13:38:17.265Z,15.80
2023-05-25T13:40:19.520Z,15.80
2023-05-25T13:42:22.068Z,15.70
2023-05-25T13:44:24.619Z,15.60
2023-05-25T13:48:31.827Z,15.60
2023-05-25T13:50:34.361Z,15.70
2023-05-25T13:52:37.598Z,15.80
2023-05-25T13:54:40.183Z,15.90
2023-05-25T13:56:43.259Z,16.00
2023-05-25T13:58:45.813Z,15.90
2023-05-25T14:00:48.406Z,16.60
2023-05-25T14:02:51.039Z,16.90
2023-05-25T14:04:53.804Z,17.00
2023-05-25T14:06:56.491Z,17.10
2023-05-25T14:08:59.021Z,17.20
2023-05-25T14:11:01.757Z,16.90
2023-05-25T14:13:04.462Z,16.50
2023-05-25T14:15:08.440Z,16.60
2023-05-25T14:17:10.944Z,16.60
2023-05-25T14:19:16.271Z,16.70
2023-05-25T14:21:18.801Z,16.50
2023-05-25T14:23:21.325Z,16.20
2023-05-25T14:25:24.477Z,16.20
2023-05-25T14:27:27.126Z,16.30
2023-05-25T14:29:29.669Z,16.50
2023-05-25T14:31:32.285Z,17.00
2023-05-25T14:33:34.820Z,17.40
2023-05-25T14:35:40.240Z,17.60
2023-05-25T14:37:43.746Z,17.70
2023-05-25T14:39:46.386Z,17.70
2023-05-25T14:41:48.912Z,17.60
2023-05-25T14:43:51.528Z,17.70
2023-05-25T14:45:54.206Z,17.80
2023-05-25T14:48:11.940Z,18.00
2023-05-25T14:50:01.239Z,17.90
2023-05-25T14:54:18.718Z,17.70
2023-05-25T14:56:21.443Z,17.50
2023-05-25T14:58:23.950Z,17.30
2023-05-25T15:00:27.145Z,17.30
2023-05-25T15:02:29.787Z,17.10
2023-05-25T15:04:32.480Z,17.40
2023-05-25T15:06:36.231Z,17.00
2023-05-25T15:08:38.750Z,17.00
2023-05-25T15:10:41.263Z,16.70
2023-05-25T15:12:43.797Z,16.60
2023-05-25T15:14:46.311Z,16.30
2023-05-25T15:16:49.154Z,16.40
2023-05-25T15:21:06.944Z,16.20
2023-05-25T15:23:09.444Z,16.10
2023-05-25T15:25:13.641Z,16.10
2023-05-25T15:27:16.487Z,16.40
2023-05-25T15:29:19.032Z,16.70
2023-05-25T15:31:21.580Z,17.00
2023-05-25T15:33:35.710Z,17.10
2023-05-25T15:35:31.584Z,17.30
2023-05-25T15:37:34.269Z,17.20
2023-05-25T15:39:36.824Z,17.30
2023-05-25T15:41:39.345Z,17.60
2023-05-25T15:43:41.890Z,17.80
2023-05-25T15:45:44.681Z,17.80
2023-05-25T15:47:47.629Z,17.80
2023-05-25T15:49:50.473Z,17.70
2023-05-25T15:51:53.329Z,17.70
2023-05-25T15:53:55.834Z,17.60
2023-05-25T15:55:58.346Z,17.90
2023-05-25T15:58:00.985Z,17.80
2023-05-25T16:00:04.900Z,17.80
2023-05-25T16:02:07.952Z,17.50
2023-05-25T16:04:10.983Z,17.90
2023-05-25T16:06:13.547Z,18.10
2023-05-25T16:08:16.075Z,18.20
2023-05-25T16:10:18.797Z,17.90
2023-05-25T16:12:23.577Z,18.00
2023-05-25T16:14:26.258Z,17.90
2023-05-25T16:16:29.115Z,18.00
2023-05-25T16:18:32.093Z,18.30
2023-05-25T16:20:34.968Z,18.70
2023-05-25T16:22:37.631Z,18.90
2023-05-25T16:24:40.142Z,18.90
2023-05-25T16:26:42.656Z,18.80
2023-05-25T16:28:45.268Z,18.80
2023-05-25T16:30:47.788Z,18.00
2023-05-25T16:32:50.400Z,17.90
2023-05-25T16:34:53.040Z,17.40
2023-05-25T16:36:55.572Z,17.30
2023-05-25T16:38:58.108Z,17.10
2023-05-25T16:41:00.732Z,17.10
2023-05-25T16:43:03.233Z,17.20
2023-05-25T16:45:07.121Z,17.00
2023-05-25T16:47:09.818Z,17.10
2023-05-25T16:49:12.653Z,17.00
2023-05-25T16:51:15.387Z,17.10
2023-05-25T16:53:17.957Z,17.10
2023-05-25T16:55:20.695Z,17.30
2023-05-25T16:57:23.207Z,17.50
2023-05-25T16:59:25.838Z,17.50
2023-05-25T17:01:28.372Z,17.70
2023-05-25T17:03:31.080Z,17.60
2023-05-25T17:05:35.818Z,17.80
2023-05-25T17:07:40.348Z,17.90
2023-05-25T17:09:43.772Z,18.20
2023-05-25T17:11:46.832Z,18.20
2023-05-25T17:13:49.590Z,18.40
2023-05-25T17:15:52.694Z,18.50
2023-05-25T17:17:55.377Z,18.30
2023-05-25T17:19:58.370Z,18.20
2023-05-25T17:22:00.974Z,18.00
2023-05-25T17:24:03.539Z,18.10
2023-05-25T17:26:06.117Z,18.20
2023-05-25T17:28:08.669Z,17.70
2023-05-25T17:30:12.192Z,17.60
2023-05-25T17:32:14.919Z,17.60
2023-05-25T17:34:17.550Z,17.50
2023-05-25T17:36:22.013Z,17.70
2023-05-25T17:38:25.429Z,18.00
2023-05-25T17:40:27.947Z,18.10
2023-05-25T17:42:30.502Z,18.10
2023-05-25T17:44:33.148Z,18.00
2023-05-25T17:46:35.760Z,17.70
2023-05-25T17:48:38.833Z,17.50
2023-05-25T17:50:41.371Z,17.30
2023-05-25T17:52:43.934Z,17.20
2023-05-25T17:54:46.625Z,17.20
2023-05-25T17:56:49.168Z,17.30
2023-05-25T17:58:51.677Z,17.10
2023-05-25T18:00:54.365Z,17.10
2023-05-25T18:02:57.152Z,17.20
2023-05-25T18:04:59.942Z,17.10
2023-05-25T18:07:02.463Z,17.00
2023-05-25T18:09:05.009Z,17.00
2023-05-25T18:11:07.544Z,17.00
2023-05-25T18:13:10.084Z,16.80
2023-05-25T18:15:12.655Z,16.70
2023-05-25T18:17:15.304Z,16.70
2023-05-25T18:19:19.834Z,16.70
2023-05-25T18:21:22.361Z,16.70
2023-05-25T18:23:25.102Z,16.70
2023-05-25T18:25:27.799Z,16.70
2023-05-25T18:27:30.312Z,16.80
2023-05-25T18:29:32.856Z,16.70
2023-05-25T18:31:35.489Z,16.50
2023-05-25T18:33:39.857Z,16.50
2023-05-25T18:35:42.608Z,16.40
2023-05-25T18:37:45.396Z,16.20
2023-05-25T18:39:47.956Z,16.20
2023-05-25T18:41:50.492Z,16.10
2023-05-25T18:43:53.012Z,16.10
2023-05-25T18:45:55.570Z,16.20
2023-05-25T18:47:58.651Z,16.20
2023-05-25T18:50:01.489Z,16.20
2023-05-25T18:52:05.868Z,16.00
2023-05-25T18:54:08.488Z,16.00
2023-05-25T18:56:11.312Z,15.90
2023-05-25T18:58:13.937Z,15.90
2023-05-25T19:00:17.248Z,15.90
2023-05-25T19:02:19.865Z,15.90
2023-05-25T19:04:22.844Z,15.80
2023-05-25T19:06:26.500Z,15.70
2023-05-25T19:08:29.057Z,15.70
2023-05-25T19:10:31.700Z,15.60
2023-05-25T19:12:34.283Z,15.50
2023-05-25T19:14:36.839Z,15.30
2023-05-25T19:16:39.392Z,15.20
2023-05-25T19:18:42.072Z,15.00
2023-05-25T19:20:44.816Z,14.90
2023-05-25T19:22:47.417Z,14.80
2023-05-25T19:24:57.437Z,14.80
2023-05-25T19:26:54.283Z,14.70
2023-05-25T19:28:56.961Z,14.60
2023-05-25T19:30:59.482Z,14.60
2023-05-25T19:33:02.123Z,14.50
2023-05-25T19:35:05.425Z,14.50
2023-05-25T19:37:11.570Z,14.20
2023-05-25T19:39:12.292Z,14.20
2023-05-25T19:41:15.400Z,14.20
2023-05-25T19:43:17.927Z,14.10
2023-05-25T19:45:20.484Z,14.00
2023-05-25T19:47:23.137Z,13.90
2023-05-25T19:49:25.857Z,13.90
2023-05-25T19:51:28.406Z,13.80
2023-05-25T19:53:30.959Z,13.70
2023-05-25T19:55:35.403Z,13.70
2023-05-25T19:57:39.599Z,13.60
2023-05-25T19:59:42.924Z,13.50
2023-05-25T20:01:45.506Z,13.60
2023-05-25T20:03:48.192Z,13.50
2023-05-25T20:05:50.761Z,13.50
2023-05-25T20:07:55.203Z,13.40
2023-05-25T20:09:57.714Z,13.40
2023-05-25T20:12:01.810Z,13.40
2023-05-25T20:14:04.454Z,13.30
2023-05-25T20:16:09.344Z,13.30
2023-05-25T20:18:11.978Z,13.20
2023-05-25T20:20:15.177Z,13.20
2023-05-25T20:22:17.826Z,13.20
2023-05-25T20:24:21.341Z,13.10
2023-05-25T20:26:23.883Z,13.10
2023-05-25T20:28:26.392Z,13.00
2023-05-25T20:30:29.030Z,12.90
2023-05-25T20:32:31.600Z,13.00
2023-05-25T20:34:34.174Z,12.90
2023-05-25T20:36:36.749Z,13.00
2023-05-25T20:38:39.296Z,13.00
2023-05-25T20:40:41.796Z,12.90
2023-05-25T20:42:44.347Z,12.80
2023-05-25T20:44:46.889Z,12.60
2023-05-25T20:46:49.443Z,12.60
2023-05-25T20:48:52.865Z,12.60
2023-05-25T20:50:55.900Z,12.40
2023-05-25T20:52:58.647Z,12.30
2023-05-25T20:55:01.545Z,12.30
2023-05-25T20:57:04.546Z,12.20
2023-05-25T20:59:07.134Z,12.20
2023-05-25T21:01:09.973Z,12.20
2023-05-25T21:03:12.744Z,12.10
2023-05-25T21:05:15.455Z,12.00
2023-05-25T21:07:19.442Z,11.90
2023-05-25T21:09:22.012Z,11.90
2023-05-25T21:11:25.632Z,11.80
2023-05-25T21:13:28.148Z,11.70
2023-05-25T21:15:31.091Z,11.70
2023-05-25T21:17:33.679Z,11.60
2023-05-25T21:19:36.318Z,11.70
2023-05-25T21:23:55.370Z,11.40
2023-05-25T21:25:57.931Z,11.40
2023-05-25T21:28:00.451Z,11.50
2023-05-25T21:30:03.082Z,11.50
2023-05-25T21:32:05.764Z,11.50
2023-05-25T21:34:08.278Z,11.50
2023-05-25T21:36:12.215Z,11.60
2023-05-25T21:38:15.342Z,11.60
2023-05-25T21:40:18.676Z,11.60
2023-05-25T21:42:24.205Z,11.60
2023-05-25T21:44:27.096Z,11.70
2023-05-25T21:46:34.248Z,11.70
2023-05-25T21:48:39.029Z,11.60
2023-05-25T21:50:42.549Z,11.70
2023-05-25T21:52:45.565Z,11.70
2023-05-25T21:54:58.024Z,11.60
2023-05-25T21:57:01.199Z,11.60
2023-05-25T21:59:03.744Z,11.70
2023-05-25T22:01:06.356Z,11.60
2023-05-25T22:03:09.071Z,11.60
2023-05-25T22:05:12.316Z,11.60
2023-05-25T22:07:14.940Z,11.50
2023-05-25T22:09:23.508Z,11.50
2023-05-25T22:11:28.074Z,11.40
2023-05-25T22:13:32.784Z,11.50
2023-05-25T22:15:35.316Z,11.30
2023-05-25T22:17:37.888Z,11.20
2023-05-25T22:19:41.832Z,11.20
2023-05-25T22:21:45.942Z,11.20
2023-05-25T22:23:55.057Z,11.20
2023-05-25T22:25:59.418Z,11.20
2023-05-25T22:28:04.055Z,11.20
2023-05-25T22:30:09.672Z,11.10
2023-05-25T22:32:17.052Z,11.10
2023-05-25T22:34:20.152Z,11.10
2023-05-25T22:36:22.703Z,11.10
2023-05-25T22:38:25.770Z,11.00
2023-05-25T22:40:36.351Z,11.00
2023-05-25T22:42:42.016Z,11.10
2023-05-25T22:44:55.892Z,11.00
2023-05-25T22:46:59.378Z,11.00
2023-05-25T22:49:02.929Z,10.90
2023-05-25T22:51:08.256Z,10.90
2023-05-25T22:53:12.563Z,10.90
2023-05-25T22:55:17.135Z,10.80
2023-05-25T22:57:20.916Z,10.80
2023-05-25T22:59:23.990Z,10.80
2023-05-25T23:01:26.647Z,10.80
2023-05-25T23:03:29.663Z,10.70
2023-05-25T23:05:32.624Z,10.70
2023-05-25T23:09:51.416Z,10.70
2023-05-25T23:11:53.927Z,10.60
2023-05-25T23:14:00.945Z,10.60
2023-05-25T23:16:04.728Z,10.60
2023-05-25T23:18:08.139Z,10.60
2023-05-25T23:20:12.070Z,10.60
2023-05-25T23:22:15.516Z,10.60
2023-05-25T23:24:30.869Z,10.50
2023-05-25T23:26:37.555Z,10.50
2023-05-25T23:28:40.408Z,10.50
2023-05-25T23:30:46.616Z,10.60
2023-05-25T23:32:51.789Z,10.50
2023-05-25T23:34:56.579Z,10.40
2023-05-25T23:36:59.550Z,10.50
2023-05-25T23:39:02.055Z,10.20
2023-05-25T23:41:05.101Z,10.20
2023-05-25T23:43:07.629Z,10.10
2023-05-25T23:45:10.751Z,10.10
2023-05-25T23:47:13.383Z,10.00
2023-05-25T23:49:15.938Z,10.10
2023-05-25T23:51:18.454Z,10.10
2023-05-25T23:53:21.006Z,9.90
2023-05-25T23:55:23.773Z,9.90
2023-05-25T23:57:26.295Z,9.80
2023-05-25T23:59:28.825Z,9.80
